Time;durP1;ratioP1;P1;durP2;ratioP2;P2;SDS_P1;SDS_P2;PMS_P1;PMS_P2;Temp;Humidity;BMP_temperature;BMP_pressure;BME280_temperature;BME280_humidity;BME280_pressure;Samples;Min_cycle;Max_cycle;Signal;HPM_P1;HPM_P2
2022/09/12 00:01:25;;;;;;;16.15;8.50;;;;;;;12.45;100.00;99266.22;8404391;28;20040;-80
2022/09/12 00:05:27;;;;;;;14.13;8.38;;;;;;;12.49;100.00;99272.59;8412731;28;20058;-80
2022/09/12 00:09:27;;;;;;;15.48;8.13;;;;;;;12.49;100.00;99278.00;8397183;28;20045;-80
2022/09/12 00:13:28;;;;;;;16.38;8.65;;;;;;;12.51;100.00;99270.38;8413148;28;20105;-80
2022/09/12 00:17:29;;;;;;;15.65;7.72;;;;;;;12.52;100.00;99282.81;8419223;28;20084;-80
2022/09/12 00:21:34;;;;;;;18.27;9.05;;;;;;;12.53;100.00;99270.88;8383453;28;20052;-80
2022/09/12 00:25:43;;;;;;;18.75;8.82;;;;;;;12.53;100.00;99279.00;8408404;28;20064;-79
2022/09/12 00:29:44;;;;;;;14.27;8.82;;;;;;;12.52;100.00;99282.81;8412144;28;20041;-80
2022/09/12 00:33:45;;;;;;;26.17;8.68;;;;;;;12.54;100.00;99280.56;8405644;28;20562;-80
2022/09/12 00:37:46;;;;;;;12.98;8.57;;;;;;;12.53;100.00;99289.81;8416294;28;20051;-80
2022/09/12 00:41:47;;;;;;;14.00;8.65;;;;;;;12.52;100.00;99289.03;8407359;28;20123;-80
2022/09/12 00:45:48;;;;;;;14.75;8.98;;;;;;;12.49;100.00;99288.84;8416893;28;20044;-80
2022/09/12 00:50:07;;;;;;;18.65;9.38;;;;;;;12.46;100.00;99292.19;8423222;28;20581;-80
2022/09/12 00:54:10;;;;;;;;;;;;;;;12.43;100.00;99290.09;8395433;28;20056;-80
2022/09/12 00:58:23;;;;;;;22.02;9.23;;;;;;;12.41;100.00;99293.16;8422333;28;19919;-80
2022/09/12 01:02:25;;;;;;;15.13;8.15;;;;;;;12.41;100.00;99292.34;8412077;28;20048;-80
2022/09/12 01:06:37;;;;;;;15.18;9.02;;;;;;;12.39;100.00;99283.72;8402748;28;20075;-81
2022/09/12 01:10:39;;;;;;;18.98;9.25;;;;;;;12.41;100.00;99286.94;8388859;28;20056;-80
2022/09/12 01:14:40;;;;;;;13.65;9.35;;;;;;;12.42;100.00;99293.94;8396403;28;20074;-81
2022/09/12 01:18:57;;;;;;;14.63;9.10;;;;;;;12.43;100.00;99292.81;8398451;28;20059;-80
2022/09/12 01:23:30;;;;;;;12.82;8.68;;;;;;;12.43;100.00;99284.69;8397366;28;20048;-81
2022/09/12 01:27:57;;;;;;;21.30;10.38;;;;;;;12.46;100.00;99289.47;8396459;28;20060;-81
2022/09/12 01:32:36;;;;;;;20.88;9.80;;;;;;;12.46;100.00;99289.47;8388894;28;20051;-80
2022/09/12 01:36:56;;;;;;;15.98;8.55;;;;;;;12.44;100.00;99291.69;8295532;28;20053;-81
2022/09/12 01:41:04;;;;;;;14.88;9.07;;;;;;;12.43;100.00;99300.94;8259893;28;20057;-81
2022/09/12 01:45:28;;;;;;;17.88;8.48;;;;;;;12.41;100.00;99295.06;8269384;28;20054;-80
2022/09/12 01:49:33;;;;;;;16.10;8.18;;;;;;;12.39;100.00;99299.97;8263223;28;20142;-81
2022/09/12 01:53:43;;;;;;;17.08;8.00;;;;;;;12.38;100.00;99303.78;8252723;28;20046;-80
2022/09/12 01:57:50;;;;;;;14.80;7.82;;;;;;;12.37;100.00;99291.38;8262196;28;20046;-80
2022/09/12 02:01:57;;;;;;;14.15;7.65;;;;;;;12.31;100.00;99298.88;8263381;28;20089;-80
2022/09/12 02:06:14;;;;;;;12.18;7.75;;;;;;;12.27;100.00;99309.50;8272678;28;20100;-80
2022/09/12 02:10:19;;;;;;;12.95;8.07;;;;;;;12.22;100.00;99306.94;8263753;28;20061;-80
2022/09/12 02:14:27;;;;;;;18.38;7.20;;;;;;;12.13;100.00;99292.59;8335488;28;20053;-80
2022/09/12 02:18:28;;;;;;;15.27;7.65;;;;;;;12.08;100.00;99300.84;8324437;28;20104;-80
2022/09/12 02:22:30;;;;;;;15.07;7.80;;;;;;;12.00;100.00;99293.50;8332471;28;20049;-80
2022/09/12 02:26:34;;;;;;;13.57;7.70;;;;;;;11.93;100.00;99298.56;8336593;28;20511;-80
2022/09/12 02:30:41;;;;;;;16.20;8.27;;;;;;;11.86;100.00;99292.81;8334332;28;20064;-80
2022/09/12 02:34:50;;;;;;;18.00;7.90;;;;;;;11.83;100.00;99298.84;8332100;28;20045;-80
2022/09/12 02:38:51;;;;;;;14.80;7.65;;;;;;;11.83;100.00;99288.03;8314027;28;20554;-80
2022/09/12 02:42:52;;;;;;;20.55;7.50;;;;;;;11.83;100.00;99282.63;8355815;28;20056;-80
2022/09/12 02:46:57;;;;;;;11.30;7.97;;;;;;;11.85;100.00;99291.22;8338990;28;20049;-79
2022/09/12 02:50:58;;;;;;;11.00;7.32;;;;;;;11.88;100.00;99293.31;8363229;28;20056;-80
2022/09/12 02:54:59;;;;;;;16.80;7.97;;;;;;;11.90;100.00;99296.47;8402607;28;20048;-80
2022/09/12 02:59:06;;;;;;;16.98;7.97;;;;;;;11.93;100.00;99298.56;8399663;28;20549;-80
2022/09/12 03:03:16;;;;;;;16.20;7.80;;;;;;;11.95;100.00;99296.34;8406077;28;20048;-81
2022/09/12 03:07:45;;;;;;;22.05;8.73;;;;;;;11.97;100.00;99299.53;8415764;28;20054;-81
2022/09/12 03:11:45;;;;;;;15.97;8.20;;;;;;;11.98;100.00;99295.72;8398037;28;20076;-80
2022/09/12 03:16:10;;;;;;;18.02;8.25;;;;;;;11.98;100.00;99306.56;8416949;28;20055;-81
2022/09/12 03:20:21;;;;;;;12.55;7.82;;;;;;;11.98;100.00;99295.72;8420291;28;20528;-80
2022/09/12 03:24:33;;;;;;;14.02;8.20;;;;;;;11.98;100.00;99295.72;8338641;28;20131;-80
2022/09/12 03:28:34;;;;;;;13.40;7.82;;;;;;;11.99;100.00;99294.63;8376328;28;20078;-80
2022/09/12 03:32:43;;;;;;;14.60;7.45;;;;;;;12.01;100.00;99295.09;8417996;28;20041;-81
2022/09/12 03:36:44;;;;;;;;;;;;;;;12.03;100.00;99287.47;8401753;28;20048;-81
2022/09/12 03:40:45;;;;;;;23.40;7.53;;;;;;;12.01;100.00;99286.97;8427642;28;20445;-81
2022/09/12 03:44:46;;;;;;;17.55;7.97;;;;;;;11.99;100.00;99289.22;8429268;28;20051;-81
2022/09/12 03:48:47;;;;;;;13.10;7.50;;;;;;;11.96;100.00;99292.53;8416896;28;20036;-81
2022/09/12 03:52:48;;;;;;;20.60;7.45;;;;;;;11.94;100.00;99289.34;8395224;28;20417;-81
2022/09/12 03:56:49;;;;;;;19.63;7.45;;;;;;;11.91;100.00;99300.78;8378056;28;20044;-81
2022/09/12 04:00:50;;;;;;;13.38;7.45;;;;;;;11.92;100.00;99296.97;8375558;28;20074;-81
2022/09/12 04:04:51;;;;;;;16.95;7.20;;;;;;;11.92;100.00;99307.81;8376854;28;20471;-81
2022/09/12 04:08:53;;;;;;;17.98;7.53;;;;;;;11.92;100.00;99307.81;8373147;28;20725;-81
2022/09/12 04:12:54;;;;;;;15.35;7.25;;;;;;;11.94;100.00;99311.00;8374987;28;20060;-81
2022/09/12 04:16:55;;;;;;;9.75;6.43;;;;;;;11.94;100.00;99311.00;8375849;28;20132;-81
2022/09/12 04:20:57;;;;;;;13.65;7.60;;;;;;;11.94;100.00;99316.41;8373101;28;20083;-81
2022/09/12 04:24:58;;;;;;;16.25;7.68;;;;;;;11.92;100.00;99315.91;8386214;28;20037;-81
2022/09/12 04:28:59;;;;;;;9.25;6.57;;;;;;;11.90;100.00;99320.84;8379737;28;20049;-81
2022/09/12 04:33:00;;;;;;;24.35;7.72;;;;;;;11.87;100.00;99318.75;8373955;28;20055;-81
2022/09/12 04:37:01;;;;;;;13.07;6.85;;;;;;;11.87;100.00;99316.06;8372248;28;20071;-81
2022/09/12 04:41:25;;;;;;;13.15;7.88;;;;;;;11.87;100.00;99310.66;8372384;28;20060;-81
2022/09/12 04:45:26;;;;;;;15.07;7.60;;;;;;;11.91;100.00;99317.03;8383561;28;20481;-81
2022/09/12 04:49:27;;;;;;;12.13;7.63;;;;;;;11.97;100.00;99321.19;8383271;28;20048;-81
2022/09/12 04:53:28;;;;;;;9.80;7.07;;;;;;;11.99;100.00;99318.97;8380149;28;20056;-81
2022/09/12 04:57:28;;;;;;;17.60;8.35;;;;;;;12.00;100.00;99320.56;8374193;28;20075;-81
2022/09/12 05:01:29;;;;;;;15.13;8.57;;;;;;;12.00;100.00;99323.25;8362138;28;20041;-81
2022/09/12 05:05:30;;;;;;;13.95;8.30;;;;;;;11.99;100.00;99323.59;8376207;28;20148;-81
2022/09/12 05:09:31;;;;;;;19.60;8.27;;;;;;;12.01;100.00;99330.28;8370941;28;20045;-80
2022/09/12 05:13:33;;;;;;;14.25;7.45;;;;;;;12.02;100.00;99334.59;8368327;28;20056;-81
2022/09/12 05:17:34;;;;;;;12.82;8.20;;;;;;;12.06;100.00;99346.38;8372197;28;20037;-81
2022/09/12 05:21:35;;;;;;;14.05;8.05;;;;;;;12.08;100.00;99327.94;8379976;28;20187;-81
2022/09/12 05:25:36;;;;;;;13.50;7.75;;;;;;;12.11;100.00;99343.53;8386970;28;20078;-81
2022/09/12 05:29:37;;;;;;;15.57;8.73;;;;;;;12.18;100.00;99343.88;8397221;28;20066;-82
2022/09/12 05:33:41;;;;;;;14.55;9.05;;;;;;;12.28;100.00;99346.31;8396858;28;20474;-81
2022/09/12 05:37:42;;;;;;;19.05;9.50;;;;;;;12.37;100.00;99348.25;8361423;28;20080;-81
2022/09/12 05:41:43;;;;;;;15.15;10.57;;;;;;;12.44;100.00;99351.28;8390420;28;20135;-80
2022/09/12 05:45:44;;;;;;;17.08;9.93;;;;;;;12.48;100.00;99352.25;8375480;28;20057;-80
2022/09/12 05:49:47;;;;;;;14.48;9.48;;;;;;;12.46;100.00;99354.50;8367238;28;20506;-81
2022/09/12 05:53:52;;;;;;;13.25;9.38;;;;;;;12.51;100.00;99352.44;8377245;28;20048;-81
2022/09/12 05:57:53;;;;;;;19.02;9.50;;;;;;;12.59;100.00;99359.78;8367643;28;20041;-81
2022/09/12 06:01:54;;;;;;;18.75;9.32;;;;;;;12.66;100.00;99353.91;8380106;28;20049;-79
2022/09/12 06:05:55;;;;;;;22.55;10.40;;;;;;;12.72;100.00;99358.06;8375736;28;20544;-82
2022/09/12 06:09:58;;;;;;;17.85;10.80;;;;;;;12.80;100.00;99359.16;8372298;28;20053;-80
2022/09/12 06:13:59;;;;;;;14.23;10.65;;;;;;;12.84;100.00;99366.38;8369387;28;20044;-81
2022/09/12 06:18:00;;;;;;;22.55;12.23;;;;;;;12.91;100.00;99361.25;8374967;28;20053;-81
2022/09/12 06:22:01;;;;;;;17.65;12.85;;;;;;;12.99;100.00;99363.19;8375456;28;20139;-81
2022/09/12 06:26:03;;;;;;;19.88;14.15;;;;;;;13.06;100.00;99363.50;8386723;28;20048;-80
2022/09/12 06:30:05;;;;;;;23.25;13.00;;;;;;;13.09;100.00;99365.59;8396526;28;20498;-81
2022/09/12 06:34:08;;;;;;;18.55;12.38;;;;;;;13.09;100.00;99368.31;8377455;28;20048;-81
2022/09/12 06:38:10;;;;;;;25.73;13.77;;;;;;;13.12;100.00;99372.31;8396599;28;20683;-81
2022/09/12 06:42:12;;;;;;;16.48;10.38;;;;;;;13.09;100.00;99379.16;8405829;28;20075;-82
2022/09/12 06:46:13;;;;;;;17.80;11.27;;;;;;;13.07;100.00;99365.09;8396659;28;20060;-81
2022/09/12 06:50:14;;;;;;;15.65;9.35;;;;;;;13.09;100.00;99373.72;8396288;28;20056;-81
2022/09/12 06:54:16;;;;;;;9.82;7.43;;;;;;;13.10;100.00;99369.91;8395738;28;20040;-81
2022/09/12 06:58:16;;;;;;;11.82;7.63;;;;;;;13.17;100.00;99368.63;8360336;28;20106;-81
2022/09/12 07:02:18;;;;;;;13.32;8.27;;;;;;;13.23;100.00;99367.38;8400776;28;20039;-80
2022/09/12 07:06:20;;;;;;;12.90;7.57;;;;;;;13.38;100.00;99369.59;8429669;28;20393;-80
2022/09/12 07:10:21;;;;;;;12.60;6.28;;;;;;;13.46;100.00;99363.38;8428776;28;20056;-81
2022/09/12 07:14:24;;;;;;;13.90;6.35;;;;;;;13.45;100.00;99365.28;8429249;28;20507;-81
2022/09/12 07:18:26;;;;;;;9.30;5.47;;;;;;;13.54;100.00;99367.97;8414771;28;20048;-81
2022/09/12 07:22:26;;;;;;;12.50;5.40;;;;;;;13.67;100.00;99372.44;8416330;28;20040;-80
2022/09/12 07:26:29;;;;;;;12.65;5.97;;;;;;;13.70;100.00;99369.06;8429090;28;20121;-80
2022/09/12 07:30:30;;;;;;;11.00;5.28;;;;;;;13.80;100.00;99376.84;8413577;28;20052;-79
2022/09/12 07:34:32;;;;;;;16.05;4.85;;;;;;;13.95;100.00;99376.38;8415007;28;20436;-81
2022/09/12 07:38:35;;;;;;;9.13;3.72;;;;;;;14.04;100.00;99380.97;8404670;28;20069;-81
2022/09/12 07:42:36;;;;;;;9.30;4.05;;;;;;;14.16;100.00;99383.81;8424857;28;20052;-80
2022/09/12 07:46:38;;;;;;;9.82;4.10;;;;;;;14.25;99.73;99381.84;8403669;28;20052;-81
2022/09/12 07:50:39;;;;;;;11.77;3.40;;;;;;;14.34;97.21;99385.31;8421083;28;20055;-80
2022/09/12 07:54:40;;;;;;;8.23;3.30;;;;;;;14.57;95.43;99394.81;8414125;28;20489;-81
2022/09/12 07:58:42;;;;;;;14.40;3.72;;;;;;;14.68;94.47;99401.50;8409629;28;20385;-80
2022/09/12 08:02:43;;;;;;;10.60;3.40;;;;;;;14.87;93.89;99400.25;8424098;28;20515;-79
2022/09/12 08:06:44;;;;;;;5.88;3.20;;;;;;;14.93;90.25;99396.22;8414613;28;20056;-79
2022/09/12 08:10:45;;;;;;;8.98;3.30;;;;;;;15.06;89.88;99406.06;8386882;28;20056;-79
2022/09/12 08:14:47;;;;;;;7.80;3.55;;;;;;;15.02;88.95;99405.09;8370279;28;20487;-79
2022/09/12 08:18:48;;;;;;;8.45;3.30;;;;;;;14.99;89.37;99405.78;8392882;28;20420;-83
2022/09/12 08:22:50;;;;;;;9.60;3.00;;;;;;;15.05;87.90;99409.91;8353118;28;20045;-82
2022/09/12 08:26:51;;;;;;;7.25;3.10;;;;;;;15.20;85.96;99412.03;8379225;28;20040;-81
2022/09/12 08:30:53;;;;;;;9.80;3.95;;;;;;;15.36;86.16;99404.84;8400502;28;20057;-81
2022/09/12 08:34:54;;;;;;;12.35;3.38;;;;;;;15.43;84.95;99405.13;8399427;28;20099;-78
2022/09/12 08:39:00;;;;;;;5.90;3.13;;;;;;;15.57;85.36;99411.09;8401151;28;20190;-80
2022/09/12 08:43:22;;;;;;;11.45;3.00;;;;;;;15.68;85.66;99410.69;8365263;28;20051;-80
2022/09/12 08:47:41;;;;;;;9.32;2.90;;;;;;;15.71;85.00;99415.47;8400956;28;20448;-83
2022/09/12 08:51:42;;;;;;;12.65;3.10;;;;;;;15.77;84.63;99414.13;8387381;28;20040;-81
2022/09/12 08:55:45;;;;;;;6.53;3.58;;;;;;;15.91;84.80;99409.19;8399568;28;20113;-79
2022/09/12 08:59:47;;;;;;;7.85;3.30;;;;;;;16.03;83.18;99406.47;8400403;28;20044;-80
2022/09/12 09:04:16;;;;;;;9.48;2.67;;;;;;;16.16;81.58;99405.38;8417485;28;20051;-81
2022/09/12 09:08:50;;;;;;;10.60;2.67;;;;;;;16.34;80.95;99401.31;8414418;28;20063;-82
2022/09/12 09:13:01;;;;;;;8.50;2.70;;;;;;;16.55;80.67;99408.59;8246312;28;20183;-81
2022/09/12 09:17:03;;;;;;;5.25;2.80;;;;;;;16.47;80.61;99411.09;8276070;28;20045;-82
2022/09/12 09:21:15;;;;;;;5.80;2.90;;;;;;;16.44;80.41;99417.22;8297217;28;20054;-79
2022/09/12 09:25:34;;;;;;;10.40;2.75;;;;;;;16.57;79.83;99409.03;8280277;28;20132;-83
2022/09/12 09:29:40;;;;;;;5.97;3.08;;;;;;;16.66;79.73;99396.13;8257197;28;20042;-81
2022/09/12 09:33:41;;;;;;;4.38;2.65;;;;;;;16.66;79.53;99402.38;8254629;28;20062;-83
2022/09/12 09:37:56;;;;;;;9.35;2.72;;;;;;;16.59;78.49;99406.81;8277554;28;20099;-79
2022/09/12 09:42:12;;;;;;;6.18;2.78;;;;;;;16.57;78.90;99414.50;8284378;28;20050;-82
2022/09/12 09:46:14;;;;;;;10.02;2.80;;;;;;;16.63;79.15;99408.50;8296053;28;20050;-81
2022/09/12 09:50:16;;;;;;;7.38;2.70;;;;;;;16.46;77.66;99414.94;8425879;28;20063;-81
2022/09/12 09:54:20;;;;;;;11.35;2.83;;;;;;;16.40;77.41;99408.13;8430833;28;20397;-81
2022/09/12 09:58:31;;;;;;;7.03;2.40;;;;;;;16.48;77.50;99417.34;8431799;28;20481;-82
2022/09/12 10:02:32;;;;;;;8.77;2.80;;;;;;;16.55;78.37;99411.34;8423407;28;20045;-81
2022/09/12 10:06:40;;;;;;;9.55;2.83;;;;;;;16.64;78.55;99410.09;8423359;28;20059;-82
2022/09/12 10:10:56;;;;;;;6.40;2.40;;;;;;;16.73;78.49;99407.25;8430212;28;20059;-82
2022/09/12 10:14:59;;;;;;;5.88;2.70;;;;;;;16.71;77.68;99404.06;8421436;28;20131;-82
2022/09/12 10:19:02;;;;;;;11.18;2.97;;;;;;;16.70;78.12;99414.22;8411302;28;20113;-82
2022/09/12 10:23:24;;;;;;;10.07;2.90;;;;;;;16.75;77.30;99411.25;8421156;28;20044;-83
2022/09/12 10:27:31;;;;;;;7.57;3.42;;;;;;;16.76;76.75;99403.88;8397110;28;20062;-83
2022/09/12 10:31:42;;;;;;;8.80;2.95;;;;;;;16.89;77.22;99395.31;8414670;28;20048;-82
2022/09/12 10:35:47;;;;;;;6.82;3.03;;;;;;;17.08;76.20;99397.41;8413619;28;20066;-81
2022/09/12 10:39:55;;;;;;;8.20;2.97;;;;;;;17.22;75.44;99391.59;8420539;28;20098;-80
2022/09/12 10:44:06;;;;;;;8.18;2.70;;;;;;;17.26;75.49;99398.75;8401340;28;20032;-82
2022/09/12 10:48:30;;;;;;;12.75;2.80;;;;;;;17.35;75.48;99400.53;8325243;28;20061;-81
2022/09/12 10:52:31;;;;;;;6.72;2.83;;;;;;;17.47;74.81;99392.31;8305858;28;20045;-82
2022/09/12 10:56:35;;;;;;;6.43;2.65;;;;;;;17.71;73.50;99395.00;8304634;28;20104;-82
2022/09/12 11:00:40;;;;;;;6.35;2.75;;;;;;;17.63;73.44;99390.47;8303367;28;20050;-82
2022/09/12 11:04:56;;;;;;;11.00;2.90;;;;;;;18.01;73.67;99390.72;8310099;28;20050;-83
2022/09/12 11:09:21;;;;;;;5.05;2.25;;;;;;;18.14;73.13;99384.00;8325580;28;20536;-81
2022/09/12 11:13:58;;;;;;;3.47;2.13;;;;;;;18.33;71.91;99379.81;8288738;28;20073;-80
2022/09/12 11:18:22;;;;;;;7.28;2.80;;;;;;;18.47;70.60;99385.59;8346735;28;20044;-86
2022/09/12 11:22:39;;;;;;;4.75;2.50;;;;;;;18.52;69.37;99379.88;8412093;28;20040;-84
2022/09/12 11:26:42;;;;;;;6.97;2.30;;;;;;;18.33;70.03;99388.00;8394687;28;20048;-83
2022/09/12 11:31:03;;;;;;;5.50;2.50;;;;;;;18.11;71.57;99379.28;8394422;28;20044;-80
2022/09/12 11:35:16;;;;;;;5.85;2.10;;;;;;;18.55;70.40;99376.47;8390484;28;20040;-80
2022/09/12 11:39:23;;;;;;;5.53;2.40;;;;;;;18.83;68.60;99387.25;8394353;28;20063;-86
2022/09/12 11:43:30;;;;;;;4.30;2.28;;;;;;;19.29;68.16;99377.34;8393104;28;20044;-82
2022/09/12 11:47:33;;;;;;;4.22;2.30;;;;;;;19.35;68.13;99386.84;8376287;28;20533;-83
2022/09/12 11:51:39;;;;;;;8.55;2.83;;;;;;;18.90;67.03;99388.22;8390703;28;20047;-81
2022/09/12 11:56:04;;;;;;;5.15;2.40;;;;;;;18.66;66.42;99388.47;8393911;28;20041;-81
2022/09/12 12:00:21;;;;;;;10.43;2.10;;;;;;;18.64;67.35;99382.53;8397541;28;20399;-81
2022/09/12 12:04:29;;;;;;;9.93;2.75;;;;;;;18.59;67.89;99382.81;8399920;28;20501;-83
2022/09/12 12:08:32;;;;;;;6.53;2.35;;;;;;;18.49;69.57;99383.31;8398811;28;20065;-82
2022/09/12 12:12:33;;;;;;;5.40;2.20;;;;;;;18.30;70.12;99385.97;8397142;28;20052;-82
2022/09/12 12:16:37;;;;;;;5.60;2.20;;;;;;;18.02;70.66;99381.38;8396053;28;20070;-84
2022/09/12 12:20:38;;;;;;;7.15;2.38;;;;;;;17.87;71.04;99386.81;8399613;28;20049;-83
2022/09/12 12:25:12;;;;;;;8.13;2.50;;;;;;;17.80;72.24;99390.16;8399682;28;20047;-82
2022/09/12 12:29:15;;;;;;;3.42;2.20;;;;;;;17.96;72.30;99382.78;8231818;28;20755;-82
2022/09/12 12:33:19;;;;;;;6.28;2.15;;;;;;;18.21;72.62;99382.63;8263975;28;20472;-81
2022/09/12 12:37:20;;;;;;;7.28;2.17;;;;;;;18.41;71.85;99376.06;8262383;28;20105;-83
2022/09/12 12:41:23;;;;;;;18.60;2.40;;;;;;;18.50;70.36;99371.25;8262843;28;20475;-81
2022/09/12 12:45:24;;;;;;;8.07;2.55;;;;;;;18.74;70.59;99373.00;8263827;28;20092;-81
2022/09/12 12:49:27;;;;;;;6.85;2.30;;;;;;;18.81;69.84;99379.44;8264756;28;20135;-83
2022/09/12 12:53:28;;;;;;;4.60;2.22;;;;;;;18.93;70.09;99371.06;8264653;28;20046;-84
2022/09/12 12:57:45;;;;;;;6.82;2.33;;;;;;;19.16;70.03;99367.66;8216442;28;20053;-83
2022/09/12 13:01:52;;;;;;;7.28;2.42;;;;;;;19.21;70.07;99364.63;8264101;28;20443;-82
2022/09/12 13:06:01;;;;;;;10.55;2.38;;;;;;;19.35;68.85;99359.47;8354130;28;20093;-81
2022/09/12 13:10:03;;;;;;;3.95;2.00;;;;;;;19.30;68.73;99362.47;8396075;28;20068;-83
2022/09/12 13:14:40;;;;;;;8.52;2.58;;;;;;;19.15;67.43;99360.59;8398024;28;20052;-81
2022/09/12 13:18:44;;;;;;;6.53;2.35;;;;;;;19.09;68.39;99356.56;8396447;28;20033;-83
2022/09/12 13:22:47;;;;;;;8.82;2.33;;;;;;;19.01;68.24;99349.34;8397900;28;20394;-82
2022/09/12 13:26:48;;;;;;;13.48;2.50;;;;;;;18.82;68.61;99358.34;8398362;28;20048;-82
2022/09/12 13:30:55;;;;;;;3.65;2.30;;;;;;;18.50;69.38;99358.38;8395743;28;20048;-83
2022/09/12 13:35:12;;;;;;;6.50;2.38;;;;;;;18.27;70.75;99353.88;8392337;28;20060;-83
2022/09/12 13:39:28;;;;;;;7.35;2.85;;;;;;;18.02;71.67;99365.00;8397270;28;20052;-82
2022/09/12 13:43:49;;;;;;;4.63;2.40;;;;;;;17.79;72.23;99354.97;8398518;28;20043;-83
2022/09/12 13:47:53;;;;;;;5.25;2.40;;;;;;;17.65;73.93;99360.88;8394917;28;20045;-83
2022/09/12 13:52:01;;;;;;;4.97;2.40;;;;;;;17.53;74.49;99358.16;8396533;28;20093;-82
2022/09/12 13:56:02;;;;;;;7.03;2.40;;;;;;;17.43;74.42;99354.00;8401410;28;20117;-83
2022/09/12 14:00:23;;;;;;;4.22;2.15;;;;;;;17.35;74.52;99362.31;8397883;28;20052;-82
2022/09/12 14:08:46;;;;;;;4.00;2.28;;;;;;;17.24;75.66;99345.63;8378645;28;20476;-83
2022/09/12 14:12:49;;;;;;;4.75;2.50;;;;;;;18.46;73.46;99343.00;8365886;28;20449;-84
2022/09/12 14:16:51;;;;;;;4.15;2.08;;;;;;;20.36;68.61;99337.06;8393520;28;20494;-83
2022/09/12 14:20:55;;;;;;;5.80;2.30;;;;;;;22.06;63.37;99333.72;8396191;28;20059;-83
2022/09/12 14:24:58;;;;;;;6.95;2.28;;;;;;;22.66;61.39;99344.41;8394593;28;20449;-84
2022/09/12 14:29:00;;;;;;;5.28;2.40;;;;;;;22.10;62.58;99329.03;8394464;28;20049;-83
2022/09/12 14:33:10;;;;;;;5.38;2.10;;;;;;;21.27;63.67;99325.81;8400602;28;20405;-83
2022/09/12 14:37:11;;;;;;;3.28;1.88;;;;;;;20.86;64.94;99321.31;8401094;28;20454;-84
2022/09/12 14:41:21;;;;;;;9.52;2.47;;;;;;;20.12;65.56;99337.41;8397201;28;20053;-82
2022/09/12 14:45:30;;;;;;;4.63;2.08;;;;;;;19.73;67.01;99331.25;8387422;28;20041;-84
2022/09/12 14:49:35;;;;;;;5.78;2.05;;;;;;;19.43;66.46;99325.56;8397681;28;20474;-82
2022/09/12 14:53:36;;;;;;;8.15;2.60;;;;;;;19.28;67.66;99321.78;8399210;28;20470;-84
2022/09/12 14:57:39;;;;;;;6.53;2.30;;;;;;;19.10;67.74;99330.75;8394659;28;20052;-81
2022/09/12 15:01:40;;;;;;;7.43;1.98;;;;;;;18.94;67.82;99317.94;8394363;28;20533;-83
2022/09/12 15:06:02;;;;;;;6.57;2.17;;;;;;;18.80;68.49;99311.38;8393885;28;20047;-83
2022/09/12 15:10:24;;;;;;;3.03;2.05;;;;;;;18.67;68.31;99315.38;8404075;28;20044;-80
2022/09/12 15:14:26;;;;;;;6.43;2.22;;;;;;;18.54;67.99;99329.19;8403754;28;20109;-82
2022/09/12 15:18:28;;;;;;;10.20;1.70;;;;;;;18.46;68.06;99321.13;8420983;28;20055;-82
2022/09/12 15:22:29;;;;;;;4.50;2.20;;;;;;;18.38;67.96;99316.66;8387363;28;20079;-81
2022/09/12 15:26:30;;;;;;;2.45;1.80;;;;;;;18.27;69.10;99315.59;8373893;28;20132;-83
2022/09/12 15:30:31;;;;;;;6.18;2.20;;;;;;;18.25;69.63;99315.16;8384636;28;20884;-83
2022/09/12 15:34:32;;;;;;;8.30;2.50;;;;;;;18.15;70.36;99314.53;8397171;28;20047;-83
2022/09/12 15:38:33;;;;;;;5.72;2.30;;;;;;;18.09;70.29;99320.63;8359370;28;20389;-81
2022/09/12 15:42:34;;;;;;;4.28;2.10;;;;;;;17.98;70.01;99314.91;8393183;28;20044;-82
2022/09/12 15:46:35;;;;;;;6.80;2.22;;;;;;;17.89;70.27;99322.47;8398814;28;20131;-82
2022/09/12 15:50:36;;;;;;;6.60;2.05;;;;;;;17.72;71.23;99312.69;8399724;28;20053;-82
2022/09/12 15:54:37;;;;;;;3.50;2.10;;;;;;;17.50;72.17;99320.66;8359033;28;20379;-83
2022/09/12 15:58:38;;;;;;;5.78;2.20;;;;;;;17.28;73.30;99314.59;8399126;28;20052;-82
2022/09/12 16:02:39;;;;;;;14.30;2.17;;;;;;;17.14;74.28;99325.09;8400070;28;20076;-83
2022/09/12 16:06:40;;;;;;;8.98;2.28;;;;;;;16.98;75.30;99326.97;8412831;28;20127;-83
2022/09/12 16:10:42;;;;;;;10.25;2.33;;;;;;;16.79;76.46;99324.06;8427687;28;20398;-83
2022/09/12 16:14:45;;;;;;;5.97;2.30;;;;;;;16.61;77.33;99317.28;8404260;28;20052;-83
2022/09/12 16:18:46;;;;;;;9.82;2.70;;;;;;;16.47;78.52;99312.97;8384107;28;20139;-83
2022/09/12 16:22:47;;;;;;;5.82;2.40;;;;;;;16.31;79.49;99314.78;8395154;28;20039;-82
2022/09/12 16:26:48;;;;;;;5.68;2.45;;;;;;;16.16;80.62;99307.28;8412058;28;20054;-83
2022/09/12 16:31:00;;;;;;;4.35;2.20;;;;;;;16.02;81.58;99309.56;8412056;28;20047;-83
2022/09/12 16:35:01;;;;;;;4.88;2.70;;;;;;;15.89;82.31;99308.75;8398431;28;20066;-84
2022/09/12 16:39:02;;;;;;;3.10;2.42;;;;;;;15.77;83.12;99310.66;8397940;28;20048;-85
2022/09/12 16:43:03;;;;;;;11.23;3.05;;;;;;;15.61;83.69;99314.03;8410962;28;20063;-83
2022/09/12 16:47:04;;;;;;;8.32;2.72;;;;;;;15.47;84.22;99313.50;8407726;28;20042;-83
2022/09/12 16:51:06;;;;;;;6.47;2.50;;;;;;;15.34;84.73;99303.69;8420251;28;20386;-83
2022/09/12 16:55:08;;;;;;;6.53;2.55;;;;;;;15.23;85.02;99307.97;8399906;28;20056;-83
2022/09/12 16:59:12;;;;;;;5.57;2.30;;;;;;;15.13;85.39;99313.81;8399552;28;20052;-83
2022/09/12 17:03:15;;;;;;;6.82;2.50;;;;;;;15.00;85.83;99304.03;8425346;28;20138;-84
2022/09/12 17:07:16;;;;;;;4.85;2.60;;;;;;;14.88;86.06;99306.69;8419469;28;20047;-83
2022/09/12 17:11:28;;;;;;;9.02;2.58;;;;;;;14.74;86.21;99302.31;8433004;28;20055;-83
2022/09/12 17:15:29;;;;;;;6.18;2.53;;;;;;;14.61;86.55;99303.34;8407050;28;20371;-83
2022/09/12 17:19:31;;;;;;;6.32;2.75;;;;;;;14.51;86.87;99309.19;8413627;28;20048;-83
2022/09/12 17:23:32;;;;;;;7.05;3.13;;;;;;;14.39;87.12;99306.34;8424844;28;20127;-83
2022/09/12 17:27:33;;;;;;;3.97;2.45;;;;;;;14.28;87.19;99299.69;8413969;28;20052;-83
2022/09/12 17:31:34;;;;;;;6.40;2.83;;;;;;;14.19;87.22;99301.66;8432972;28;20032;-83
2022/09/12 17:35:37;;;;;;;6.88;2.65;;;;;;;14.11;87.58;99299.78;8432758;28;20068;-83
2022/09/12 17:39:38;;;;;;;8.63;3.47;;;;;;;14.05;87.51;99311.97;8432485;28;20032;-83
2022/09/12 17:43:39;;;;;;;7.63;3.78;;;;;;;14.02;87.72;99307.16;8426355;28;20048;-83
2022/09/12 17:47:40;;;;;;;17.00;3.85;;;;;;;13.99;87.75;99318.69;8400432;28;20101;-83
2022/09/12 17:51:42;;;;;;;16.20;5.68;;;;;;;13.91;87.69;99312.94;8390436;28;20040;-83
2022/09/12 17:55:43;;;;;;;10.80;4.95;;;;;;;13.89;87.49;99312.50;8400179;28;20090;-84
2022/09/12 17:59:44;;;;;;;8.90;5.50;;;;;;;13.85;87.60;99313.47;8397961;28;20041;-85
2022/09/12 18:03:45;;;;;;;23.30;6.40;;;;;;;13.83;87.94;99316.50;8398274;28;20059;-84
2022/09/12 18:07:46;;;;;;;14.27;4.80;;;;;;;13.85;88.17;99308.06;8411617;28;20044;-84
2022/09/12 18:11:48;;;;;;;8.85;4.70;;;;;;;13.85;88.41;99325.09;8397555;28;20109;-83
2022/09/12 18:15:49;;;;;;;13.07;4.05;;;;;;;13.84;88.53;99323.53;8399169;28;20041;-82
2022/09/12 18:19:52;;;;;;;12.65;4.55;;;;;;;13.83;88.95;99327.38;8380676;28;20055;-81
2022/09/12 18:24:00;;;;;;;13.93;4.82;;;;;;;13.81;89.19;99329.59;8391294;28;20044;-82
2022/09/12 18:28:02;;;;;;;13.63;5.13;;;;;;;13.76;89.00;99332.50;8383297;28;20522;-82
2022/09/12 18:32:03;;;;;;;12.35;5.03;;;;;;;13.72;88.92;99326.13;8376154;28;20105;-82
2022/09/12 18:36:05;;;;;;;8.75;4.97;;;;;;;13.69;89.22;99326.78;8363751;28;20065;-82
2022/09/12 18:40:07;;;;;;;9.95;4.50;;;;;;;13.66;89.27;99321.97;8357882;28;20091;-82
2022/09/12 18:44:10;;;;;;;8.85;5.20;;;;;;;13.66;89.50;99321.97;8362565;28;20053;-82
2022/09/12 18:48:11;;;;;;;12.23;5.30;;;;;;;13.65;89.70;99325.81;8388953;28;20084;-82
2022/09/12 18:52:14;;;;;;;8.20;5.70;;;;;;;13.64;90.00;99324.22;8381590;28;20145;-82
2022/09/12 18:56:15;;;;;;;15.88;5.75;;;;;;;13.65;90.22;99325.81;8377737;28;20542;-82
2022/09/12 19:00:17;;;;;;;10.30;5.55;;;;;;;13.64;90.44;99318.78;8379397;28;20039;-82
2022/09/12 19:04:19;;;;;;;16.33;5.32;;;;;;;13.62;90.48;99321.03;8380484;28;20489;-82
2022/09/12 19:08:20;;;;;;;9.73;5.60;;;;;;;13.58;90.40;99303.81;8393576;28;20051;-82